createdAt,value
2019-05-28T00:00:32.225Z,68.30
2019-05-28T00:02:33.885Z,68.60
2019-05-28T00:04:35.565Z,70.00
2019-05-28T00:06:37.240Z,70.00
2019-05-28T00:08:39.242Z,68.30
2019-05-28T00:10:40.922Z,69.80
2019-05-28T00:12:42.590Z,71.90
2019-05-28T00:14:44.262Z,73.30
2019-05-28T00:16:46.272Z,73.90
2019-05-28T00:18:47.930Z,68.90
2019-05-28T00:20:49.877Z,72.60
2019-05-28T00:22:51.825Z,79.70
2019-05-28T00:24:53.494Z,81.50
2019-05-28T00:26:55.148Z,79.30
2019-05-28T00:28:56.809Z,74.20
2019-05-28T00:30:58.553Z,72.20
2019-05-28T00:33:00.230Z,74.70
2019-05-28T00:35:01.911Z,72.30
2019-05-28T00:37:03.605Z,73.10
2019-05-28T00:39:06.501Z,71.80
2019-05-28T00:41:08.176Z,72.50
2019-05-28T00:43:10.189Z,76.20
2019-05-28T00:45:11.871Z,74.70
2019-05-28T00:47:13.545Z,73.50
2019-05-28T00:49:15.217Z,74.50
2019-05-28T00:51:17.212Z,80.00
2019-05-28T00:53:18.882Z,83.40
2019-05-28T00:55:20.567Z,85.00
2019-05-28T00:57:22.576Z,83.50
2019-05-28T00:59:24.241Z,83.00
2019-05-28T01:01:26.185Z,83.70
2019-05-28T01:03:27.849Z,78.60
2019-05-28T01:05:29.529Z,78.00
2019-05-28T01:07:31.197Z,81.40
2019-05-28T01:09:32.865Z,81.40
2019-05-28T01:11:34.857Z,80.30
2019-05-28T01:13:36.521Z,80.10
2019-05-28T01:15:38.465Z,80.20
2019-05-28T01:17:40.133Z,78.30
2019-05-28T01:19:41.815Z,80.50
2019-05-28T01:21:43.938Z,77.40
2019-05-28T01:23:45.602Z,76.80
2019-05-28T01:25:47.272Z,76.80
2019-05-28T01:27:48.941Z,76.80
2019-05-28T01:29:50.613Z,75.40
2019-05-28T01:31:52.283Z,76.70
2019-05-28T01:33:53.949Z,75.30
2019-05-28T01:35:55.629Z,77.30
2019-05-28T01:37:57.293Z,77.70
2019-05-28T01:39:58.965Z,76.60
2019-05-28T01:42:00.661Z,77.10
2019-05-28T01:44:02.627Z,77.80
2019-05-28T01:46:04.292Z,76.80
2019-05-28T01:48:05.973Z,77.50
2019-05-28T01:50:07.636Z,77.40
2019-05-28T01:52:09.301Z,76.90
2019-05-28T01:54:10.970Z,76.80
2019-05-28T01:56:12.647Z,74.70
2019-05-28T01:58:14.320Z,77.50
2019-05-28T02:00:16.121Z,77.80
2019-05-28T02:02:17.791Z,76.30
2019-05-28T02:04:19.452Z,76.70
2019-05-28T02:06:21.122Z,76.50
2019-05-28T02:08:22.789Z,78.10
2019-05-28T02:10:24.472Z,81.40
2019-05-28T02:12:26.141Z,84.80
2019-05-28T02:14:28.101Z,81.60
2019-05-28T02:16:30.041Z,81.00
2019-05-28T02:18:31.709Z,79.50
2019-05-28T02:20:33.461Z,81.30
2019-05-28T02:22:35.131Z,82.10
2019-05-28T02:24:36.801Z,81.20
2019-05-28T02:26:38.467Z,81.00
2019-05-28T02:28:40.133Z,79.50
2019-05-28T02:30:42.151Z,81.30
2019-05-28T02:32:43.831Z,82.20
2019-05-28T02:34:45.879Z,84.30
2019-05-28T02:36:47.554Z,82.60
2019-05-28T02:38:49.561Z,86.80
2019-05-28T02:40:51.246Z,84.30
2019-05-28T02:42:52.912Z,81.70
2019-05-28T02:44:54.840Z,81.60
2019-05-28T02:46:56.534Z,84.60
2019-05-28T02:48:58.517Z,86.40
2019-05-28T02:51:03.739Z,87.10
2019-05-28T02:53:05.461Z,85.90
2019-05-28T02:55:07.132Z,84.50
2019-05-28T02:57:08.809Z,85.40
2019-05-28T02:59:14.490Z,82.20
2019-05-28T03:01:16.170Z,80.70
2019-05-28T03:03:18.404Z,78.00
2019-05-28T03:05:20.078Z,75.90
2019-05-28T03:07:21.737Z,78.90
2019-05-28T03:09:24.333Z,76.10
2019-05-28T03:11:26.345Z,73.10
2019-05-28T03:13:28.096Z,70.20
2019-05-28T03:15:30.072Z,70.80
2019-05-28T03:17:32.117Z,65.80
2019-05-28T03:19:33.769Z,67.00
2019-05-28T03:21:35.509Z,65.70
2019-05-28T03:23:37.592Z,66.80
2019-05-28T03:25:39.253Z,66.10
2019-05-28T03:27:40.921Z,65.50
2019-05-28T03:29:42.606Z,68.50
2019-05-28T03:32:02.912Z,69.30
2019-05-28T03:33:47.850Z,69.50
2019-05-28T03:35:49.514Z,67.70
2019-05-28T03:37:51.216Z,67.20
2019-05-28T03:39:52.881Z,67.90
2019-05-28T03:41:54.564Z,70.50
2019-05-28T03:43:56.216Z,68.20
2019-05-28T03:45:57.890Z,70.70
2019-05-28T03:47:59.843Z,70.50
2019-05-28T03:50:01.655Z,72.30
2019-05-28T03:52:03.326Z,73.80
2019-05-28T03:54:05.053Z,73.70
2019-05-28T03:56:06.787Z,71.40
2019-05-28T03:58:08.814Z,69.20
2019-05-28T04:00:10.490Z,70.40
2019-05-28T04:02:23.061Z,68.80
2019-05-28T04:04:15.750Z,69.20
2019-05-28T04:06:17.417Z,69.10
2019-05-28T04:08:19.080Z,69.60
2019-05-28T04:10:21.078Z,70.30
2019-05-28T04:12:22.754Z,70.30
2019-05-28T04:14:24.426Z,70.90
2019-05-28T04:16:26.099Z,75.30
2019-05-28T04:18:27.777Z,75.30
2019-05-28T04:20:29.445Z,71.60
2019-05-28T04:22:31.216Z,76.40
2019-05-28T04:24:33.605Z,72.40
2019-05-28T04:26:35.279Z,74.10
2019-05-28T04:28:37.066Z,73.70
2019-05-28T04:30:38.737Z,73.80
2019-05-28T04:32:41.519Z,71.40
2019-05-28T04:34:43.406Z,76.40
2019-05-28T04:36:45.078Z,70.90
2019-05-28T04:38:46.756Z,67.50
2019-05-28T04:40:48.420Z,72.30
2019-05-28T04:42:50.389Z,70.00
2019-05-28T04:44:52.053Z,71.80
2019-05-28T04:46:53.728Z,72.20
2019-05-28T04:48:55.645Z,71.10
2019-05-28T04:50:57.301Z,68.40
2019-05-28T04:52:58.981Z,67.70
2019-05-28T04:55:00.913Z,66.00
2019-05-28T04:57:02.839Z,69.40
2019-05-28T04:59:04.761Z,69.30
2019-05-28T05:01:06.709Z,70.10
2019-05-28T05:03:08.388Z,67.20
2019-05-28T05:05:10.075Z,67.90
2019-05-28T05:07:11.846Z,68.50
2019-05-28T05:09:13.830Z,62.00
2019-05-28T05:11:15.533Z,62.00
2019-05-28T05:13:17.607Z,61.10
2019-05-28T05:15:19.272Z,59.50
2019-05-28T05:17:20.954Z,56.70
2019-05-28T05:19:22.718Z,58.30
2019-05-28T05:21:24.390Z,56.80
2019-05-28T05:23:26.380Z,58.20
2019-05-28T05:25:28.141Z,60.20
2019-05-28T05:27:29.901Z,59.70
2019-05-28T05:29:31.590Z,56.80
2019-05-28T05:31:33.448Z,54.40
2019-05-28T05:33:35.127Z,53.30
2019-05-28T05:35:37.049Z,55.50
2019-05-28T05:37:38.721Z,53.60
2019-05-28T05:39:40.400Z,52.80
2019-05-28T05:41:42.370Z,57.00
2019-05-28T05:43:44.045Z,56.90
2019-05-28T05:45:45.848Z,53.40
2019-05-28T05:47:47.622Z,56.30
2019-05-28T05:49:49.279Z,58.50
2019-05-28T05:51:50.954Z,61.20
2019-05-28T05:53:52.632Z,58.50
2019-05-28T05:56:13.974Z,61.60
2019-05-28T05:58:15.654Z,57.80
2019-05-28T06:00:17.313Z,57.10
2019-05-28T06:02:19.020Z,55.40
2019-05-28T06:04:20.766Z,49.80
2019-05-28T06:06:22.435Z,54.50
2019-05-28T06:08:24.215Z,47.10
2019-05-28T06:10:25.880Z,48.50
2019-05-28T06:12:27.874Z,49.80
2019-05-28T06:14:29.557Z,48.80
2019-05-28T06:16:31.233Z,53.30
2019-05-28T06:18:32.909Z,45.60
2019-05-28T06:20:34.579Z,41.40
2019-05-28T06:22:36.541Z,39.70
2019-05-28T06:24:38.476Z,30.70
2019-05-28T06:26:40.421Z,33.30
2019-05-28T06:28:42.108Z,30.10
2019-05-28T06:30:43.774Z,26.50
2019-05-28T06:32:45.442Z,25.30
2019-05-28T06:34:47.113Z,27.60
2019-05-28T06:36:49.130Z,28.60
2019-05-28T06:38:51.086Z,20.80
2019-05-28T06:40:52.754Z,22.00
2019-05-28T06:42:54.424Z,25.20
2019-05-28T06:44:56.178Z,20.80
2019-05-28T06:46:58.177Z,15.90
2019-05-28T06:48:59.871Z,19.10
2019-05-28T06:51:01.538Z,16.10
2019-05-28T06:53:03.197Z,15.10
2019-05-28T06:55:04.901Z,13.00
2019-05-28T06:57:21.921Z,12.10
2019-05-28T06:59:10.386Z,16.80
2019-05-28T07:01:12.146Z,9.20
2019-05-28T07:03:13.952Z,9.20
2019-05-28T07:05:15.632Z,10.60
2019-05-28T07:07:17.305Z,5.20
2019-05-28T07:09:18.977Z,6.20
2019-05-28T07:11:20.651Z,6.30
2019-05-28T07:13:22.313Z,9.80
2019-05-28T07:15:23.999Z,4.10
2019-05-28T07:17:25.664Z,5.40
2019-05-28T07:19:27.337Z,4.00
2019-05-28T07:21:29.072Z,8.40
2019-05-28T07:23:30.783Z,13.00
2019-05-28T07:25:32.572Z,9.60
2019-05-28T07:27:34.538Z,6.10
2019-05-28T07:29:36.219Z,9.90
2019-05-28T07:31:37.877Z,8.20
2019-05-28T07:33:39.549Z,10.30
2019-05-28T07:35:45.729Z,7.00
2019-05-28T07:37:44.791Z,12.50
2019-05-28T07:39:46.470Z,7.50
2019-05-28T07:41:48.138Z,3.40
2019-05-28T07:43:49.805Z,5.20
2019-05-28T07:45:51.494Z,3.30
2019-05-28T07:47:53.174Z,7.10
2019-05-28T07:49:54.849Z,2.10
2019-05-28T07:51:56.524Z,4.50
2019-05-28T07:53:58.285Z,1.00
2019-05-28T07:56:00.027Z,5.10
2019-05-28T07:58:01.866Z,2.20
2019-05-28T08:00:06.047Z,1.00
2019-05-28T08:02:08.189Z,1.00
2019-05-28T08:04:09.865Z,1.00
2019-05-28T08:06:11.541Z,1.00
2019-05-28T08:08:15.986Z,1.00
2019-05-28T08:10:17.730Z,1.00
2019-05-28T08:12:19.414Z,1.00
2019-05-28T08:14:21.429Z,1.00
2019-05-28T08:16:24.227Z,1.00
2019-05-28T08:18:26.571Z,1.80
2019-05-28T08:20:28.257Z,2.70
2019-05-28T08:22:41.566Z,1.00
2019-05-28T08:24:33.777Z,1.00
2019-05-28T08:26:35.736Z,1.00
2019-05-28T08:28:37.406Z,1.00
2019-05-28T08:30:39.077Z,1.00
2019-05-28T08:32:40.750Z,1.00
2019-05-28T08:34:42.433Z,1.00
2019-05-28T08:36:44.108Z,1.00
2019-05-28T08:38:45.780Z,1.00
2019-05-28T08:40:47.889Z,1.00
2019-05-28T08:42:52.054Z,1.00
2019-05-28T08:44:53.817Z,1.00
2019-05-28T08:46:55.496Z,1.00
2019-05-28T08:48:57.161Z,1.00
2019-05-28T08:50:58.848Z,1.00
2019-05-28T08:53:00.854Z,1.00
2019-05-28T08:55:02.691Z,1.00
2019-05-28T09:00:39.624Z,1.00
2019-05-28T09:05:57.345Z,1.00
2019-05-28T09:07:59.012Z,1.00
2019-05-28T09:10:00.689Z,1.00
2019-05-28T09:12:02.357Z,1.00
2019-05-28T09:14:04.026Z,1.00
2019-05-28T09:16:05.704Z,1.00
2019-05-28T09:18:07.523Z,1.00
2019-05-28T09:20:09.415Z,1.00
2019-05-28T09:22:24.681Z,2.00
2019-05-28T09:24:15.449Z,1.80
2019-05-28T09:26:17.114Z,1.60
2019-05-28T09:28:29.057Z,1.00
2019-05-28T09:30:22.584Z,1.60
2019-05-28T09:32:24.266Z,3.00
2019-05-28T09:34:26.035Z,1.00
2019-05-28T09:36:27.709Z,1.50
2019-05-28T09:38:29.377Z,1.00
2019-05-28T09:40:48.562Z,4.50
2019-05-28T09:42:34.941Z,4.00
2019-05-28T09:44:36.619Z,4.40
2019-05-28T09:46:38.306Z,3.60
2019-05-28T09:48:39.978Z,1.70
2019-05-28T09:50:41.665Z,3.90
2019-05-28T09:52:54.613Z,4.40
2019-05-28T09:54:46.909Z,1.30
2019-05-28T09:56:48.598Z,6.80
2019-05-28T09:58:50.461Z,5.50
2019-05-28T10:00:58.099Z,6.50
2019-05-28T10:02:57.293Z,5.60
2019-05-28T10:04:59.234Z,5.80
2019-05-28T10:07:01.000Z,1.60
2019-05-28T10:09:04.200Z,3.40
2019-05-28T10:11:05.869Z,4.60
2019-05-28T10:13:07.529Z,3.90
2019-05-28T10:15:09.197Z,1.50
2019-05-28T10:17:11.114Z,1.00
2019-05-28T10:19:12.773Z,1.00
2019-05-28T10:21:18.812Z,1.00
2019-05-28T10:23:18.025Z,1.00
2019-05-28T10:25:19.766Z,1.00
2019-05-28T10:27:21.807Z,1.00
2019-05-28T10:29:23.958Z,1.00
2019-05-28T10:31:25.638Z,1.00
2019-05-28T10:33:27.304Z,1.00
2019-05-28T10:35:29.169Z,1.00
2019-05-28T10:37:30.850Z,1.00
2019-05-28T10:39:32.517Z,1.00
2019-05-28T10:41:34.199Z,1.00
2019-05-28T10:43:36.149Z,1.00
2019-05-28T10:45:37.852Z,1.00
2019-05-28T10:47:39.600Z,1.00
2019-05-28T10:49:41.269Z,1.00
2019-05-28T10:51:42.954Z,1.00
2019-05-28T10:53:44.614Z,1.00
2019-05-28T10:55:46.294Z,1.00
2019-05-28T10:57:47.962Z,1.00
2019-05-28T10:59:49.629Z,1.00
2019-05-28T11:01:51.414Z,1.00
2019-05-28T11:03:53.141Z,1.00
2019-05-28T11:05:54.825Z,1.00
2019-05-28T11:07:56.789Z,1.00
2019-05-28T11:09:58.465Z,1.00
2019-05-28T11:12:00.217Z,1.00
2019-05-28T11:14:01.881Z,1.00
2019-05-28T11:16:04.243Z,1.00
2019-05-28T11:18:06.065Z,1.00
2019-05-28T11:20:08.450Z,1.00
2019-05-28T11:22:10.122Z,1.00
2019-05-28T11:24:11.793Z,1.00
2019-05-28T11:26:13.477Z,1.00
2019-05-28T11:28:15.151Z,1.00
2019-05-28T11:30:16.814Z,1.00
2019-05-28T11:32:18.494Z,1.00
2019-05-28T11:34:20.157Z,1.00
2019-05-28T11:36:22.077Z,1.00
2019-05-28T11:38:23.732Z,1.00
2019-05-28T11:40:25.397Z,1.00
2019-05-28T11:42:27.339Z,1.00
2019-05-28T11:44:29.012Z,1.00
2019-05-28T11:46:30.697Z,1.00
2019-05-28T11:48:32.373Z,1.00
2019-05-28T11:50:34.079Z,1.00
2019-05-28T11:52:35.885Z,1.00
2019-05-28T11:54:37.633Z,1.00
2019-05-28T11:56:39.320Z,1.00
2019-05-28T11:58:41.069Z,1.00
2019-05-28T12:00:42.953Z,1.00
2019-05-28T12:02:44.641Z,1.00
2019-05-28T12:04:46.401Z,1.00
2019-05-28T12:06:48.086Z,1.00
2019-05-28T12:08:49.751Z,1.00
2019-05-28T12:10:51.415Z,1.00
2019-05-28T12:12:53.076Z,1.00
2019-05-28T12:14:54.741Z,1.00
2019-05-28T12:16:56.745Z,1.00
2019-05-28T12:18:58.581Z,1.00
2019-05-28T12:21:00.582Z,1.00
2019-05-28T12:23:11.403Z,1.00
2019-05-28T12:25:05.852Z,1.00
2019-05-28T12:27:07.524Z,1.00
2019-05-28T12:29:09.193Z,1.00
2019-05-28T12:31:10.870Z,1.00
2019-05-28T12:33:12.547Z,1.00
2019-05-28T12:35:27.450Z,1.00
2019-05-28T12:37:17.786Z,1.00
2019-05-28T12:39:19.454Z,1.00
2019-05-28T12:41:21.121Z,1.00
2019-05-28T12:43:22.790Z,1.00
2019-05-28T12:45:35.162Z,1.00
2019-05-28T12:47:28.050Z,1.00
2019-05-28T12:49:29.712Z,1.00
2019-05-28T12:51:31.793Z,1.00
2019-05-28T12:53:49.284Z,1.00
2019-05-28T12:55:37.070Z,1.00
2019-05-28T12:57:38.756Z,1.00
2019-05-28T12:59:40.425Z,1.00
2019-05-28T13:01:42.421Z,1.00
2019-05-28T13:03:44.188Z,1.00
2019-05-28T13:05:45.850Z,1.00
2019-05-28T13:08:06.260Z,1.00
2019-05-28T13:09:51.106Z,1.00
2019-05-28T13:11:52.810Z,1.00
2019-05-28T13:13:54.861Z,1.00
2019-05-28T13:15:56.530Z,1.00
2019-05-28T13:17:58.215Z,1.00
2019-05-28T13:19:59.977Z,1.00
2019-05-28T13:22:01.642Z,1.00
2019-05-28T13:24:03.324Z,1.00
2019-05-28T13:26:04.991Z,1.00
2019-05-28T13:28:06.665Z,1.00
2019-05-28T13:30:08.625Z,1.00
2019-05-28T13:32:10.870Z,1.00
2019-05-28T13:34:12.528Z,1.00
2019-05-28T13:36:14.190Z,1.00
2019-05-28T13:38:26.322Z,1.00
2019-05-28T13:40:19.445Z,1.00
2019-05-28T13:42:21.123Z,1.00
2019-05-28T13:44:22.789Z,1.00
2019-05-28T13:46:24.487Z,1.00
2019-05-28T13:48:26.253Z,1.00
2019-05-28T13:50:29.509Z,1.00
2019-05-28T13:52:31.577Z,1.00
2019-05-28T13:54:33.537Z,1.00
2019-05-28T13:56:35.204Z,1.00
2019-05-28T13:58:36.894Z,1.00
2019-05-28T14:00:38.556Z,1.00
2019-05-28T14:02:40.242Z,1.00
2019-05-28T14:04:42.209Z,1.00
2019-05-28T14:06:44.776Z,1.00
2019-05-28T14:08:47.625Z,1.00
2019-05-28T14:10:49.443Z,1.00
2019-05-28T14:12:51.169Z,1.00
2019-05-28T14:14:53.083Z,1.00
2019-05-28T14:16:54.745Z,1.00
2019-05-28T14:18:56.428Z,1.00
2019-05-28T14:20:58.101Z,1.00
2019-05-28T14:22:59.778Z,1.00
2019-05-28T14:25:01.491Z,1.00
2019-05-28T14:27:03.228Z,1.00
2019-05-28T14:29:04.997Z,1.00
2019-05-28T14:31:06.986Z,1.00
2019-05-28T14:33:08.669Z,1.00
2019-05-28T14:35:10.340Z,1.00
2019-05-28T14:37:12.337Z,1.00
2019-05-28T14:39:14.011Z,1.00
2019-05-28T14:41:15.774Z,1.00
2019-05-28T14:43:17.837Z,1.00
2019-05-28T14:45:19.602Z,1.00
2019-05-28T14:47:21.621Z,1.00
2019-05-28T14:49:23.284Z,1.00
2019-05-28T14:51:24.955Z,1.00
2019-05-28T14:53:26.634Z,1.00
2019-05-28T14:55:28.306Z,1.00
2019-05-28T14:57:29.991Z,1.00
2019-05-28T14:59:31.937Z,1.00
2019-05-28T15:01:33.621Z,1.00
2019-05-28T15:03:35.297Z,1.00
2019-05-28T15:05:36.962Z,1.00
2019-05-28T15:07:38.652Z,1.00
2019-05-28T15:09:40.446Z,1.00
2019-05-28T15:11:42.205Z,1.00
2019-05-28T15:13:43.880Z,1.00
2019-05-28T15:15:45.545Z,1.00
2019-05-28T15:17:47.215Z,1.00
2019-05-28T15:19:48.892Z,1.00
2019-05-28T15:21:50.567Z,1.00
2019-05-28T15:23:52.262Z,1.00
2019-05-28T15:25:54.029Z,1.00
2019-05-28T15:27:55.704Z,1.00
2019-05-28T15:29:57.396Z,1.00
2019-05-28T15:31:59.150Z,1.00
2019-05-28T15:34:00.821Z,1.00
2019-05-28T15:36:02.506Z,1.00
2019-05-28T15:38:04.269Z,1.00
2019-05-28T15:40:06.245Z,1.00
2019-05-28T15:42:08.033Z,1.00
2019-05-28T15:44:09.816Z,1.00
2019-05-28T15:46:11.486Z,1.00
2019-05-28T15:48:13.154Z,1.00
2019-05-28T15:50:14.825Z,1.00
2019-05-28T15:52:16.498Z,1.00
2019-05-28T15:54:18.491Z,1.00
2019-05-28T15:56:20.154Z,1.00
2019-05-28T15:58:22.093Z,1.00
2019-05-28T16:00:23.777Z,1.00
2019-05-28T16:02:25.442Z,1.00
2019-05-28T16:04:27.109Z,1.00
2019-05-28T16:06:28.776Z,1.00
2019-05-28T16:08:30.441Z,1.00
2019-05-28T16:10:32.122Z,1.00
2019-05-28T16:12:34.067Z,1.00
2019-05-28T16:14:35.754Z,1.00
2019-05-28T16:16:37.426Z,1.00
2019-05-28T16:18:39.093Z,1.00
2019-05-28T16:20:40.769Z,1.00
2019-05-28T16:22:42.437Z,1.00
2019-05-28T16:24:44.118Z,1.00
2019-05-28T16:26:45.786Z,1.00
2019-05-28T16:28:47.461Z,1.00
2019-05-28T16:30:49.139Z,1.00
2019-05-28T16:32:50.807Z,1.00
2019-05-28T16:34:52.488Z,1.00
2019-05-28T16:36:54.154Z,1.00
2019-05-28T16:38:55.832Z,1.00
2019-05-28T16:40:57.608Z,1.00
2019-05-28T16:42:59.274Z,1.00
2019-05-28T16:45:00.958Z,1.00
2019-05-28T16:47:16.157Z,1.00
2019-05-28T16:49:06.262Z,1.00
2019-05-28T16:51:07.937Z,1.00
2019-05-28T16:53:09.601Z,1.00
2019-05-28T16:55:11.281Z,1.00
2019-05-28T16:57:12.955Z,1.00
2019-05-28T16:59:14.626Z,1.00
2019-05-28T17:01:22.440Z,1.00
2019-05-28T17:03:20.387Z,1.00
2019-05-28T17:05:22.068Z,1.00
2019-05-28T17:07:23.729Z,1.00
2019-05-28T17:09:25.386Z,1.00
2019-05-28T17:11:28.366Z,1.00
2019-05-28T17:13:31.101Z,1.00
2019-05-28T17:15:35.133Z,1.00
2019-05-28T17:17:36.795Z,1.00
2019-05-28T17:19:39.429Z,1.00
2019-05-28T17:21:41.101Z,1.00
2019-05-28T17:23:42.769Z,1.00
2019-05-28T17:25:44.446Z,1.00
2019-05-28T17:27:46.117Z,1.00
2019-05-28T17:29:50.570Z,1.00
2019-05-28T17:31:51.646Z,1.00
2019-05-28T17:33:53.313Z,1.00
2019-05-28T17:35:57.416Z,1.00
2019-05-28T17:37:58.564Z,1.00
2019-05-28T17:40:00.250Z,1.00
2019-05-28T17:42:01.916Z,1.00
2019-05-28T17:44:03.874Z,1.00
2019-05-28T17:46:05.550Z,1.00
2019-05-28T17:48:07.269Z,1.00
2019-05-28T17:50:09.137Z,1.00
2019-05-28T17:52:10.806Z,1.00
2019-05-28T17:54:12.474Z,1.00
2019-05-28T17:56:14.157Z,1.00
2019-05-28T17:58:15.821Z,1.00
2019-05-28T18:00:17.801Z,1.00
2019-05-28T18:02:19.811Z,1.00
2019-05-28T18:04:21.530Z,1.00
2019-05-28T18:06:23.209Z,1.00
2019-05-28T18:08:24.925Z,1.00
2019-05-28T18:10:26.607Z,1.00
2019-05-28T18:12:28.273Z,1.00
2019-05-28T18:14:29.945Z,1.00
2019-05-28T18:16:31.630Z,1.00
2019-05-28T18:18:33.292Z,1.00
2019-05-28T18:20:34.970Z,1.00
2019-05-28T18:22:36.650Z,1.00
2019-05-28T18:24:38.650Z,1.00
2019-05-28T18:26:40.334Z,1.00
2019-05-28T18:28:42.001Z,1.00
2019-05-28T18:30:43.676Z,1.00
2019-05-28T18:32:45.669Z,1.00
2019-05-28T18:34:47.350Z,1.00
2019-05-28T18:36:49.022Z,1.00
2019-05-28T18:38:50.694Z,1.00
2019-05-28T18:40:52.384Z,1.00
2019-05-28T18:42:54.834Z,1.00
2019-05-28T18:44:57.122Z,1.00
2019-05-28T18:46:58.814Z,1.00
2019-05-28T18:49:00.819Z,1.00
2019-05-28T18:51:02.497Z,1.00
2019-05-28T18:53:04.165Z,1.00
2019-05-28T18:55:05.962Z,1.00
2019-05-28T18:57:07.673Z,1.00
2019-05-28T18:59:09.712Z,1.00
2019-05-28T19:01:11.488Z,1.00
2019-05-28T19:03:13.468Z,1.00
2019-05-28T19:05:15.153Z,1.00
2019-05-28T19:07:16.852Z,1.00
2019-05-28T19:09:18.524Z,1.00
2019-05-28T19:11:20.205Z,1.00
2019-05-28T19:13:21.869Z,1.00
2019-05-28T19:15:23.550Z,1.00
2019-05-28T19:17:25.365Z,1.00
2019-05-28T19:19:27.275Z,1.00
2019-05-28T19:21:28.948Z,1.00
2019-05-28T19:23:30.629Z,1.00
2019-05-28T19:25:32.301Z,1.00
2019-05-28T19:27:35.588Z,1.00
2019-05-28T19:29:37.554Z,1.00
2019-05-28T19:31:39.329Z,1.00
2019-05-28T19:33:41.341Z,1.00
2019-05-28T19:35:43.346Z,1.00
2019-05-28T19:37:45.023Z,1.00
2019-05-28T19:39:46.691Z,1.00
2019-05-28T19:41:54.105Z,1.00
2019-05-28T19:43:51.991Z,1.00
2019-05-28T19:45:53.733Z,1.00
2019-05-28T19:47:55.693Z,1.00
2019-05-28T19:49:57.360Z,1.00
2019-05-28T19:51:59.034Z,1.00
2019-05-28T19:54:01.253Z,1.00
2019-05-28T19:56:02.937Z,1.00
2019-05-28T19:58:04.717Z,1.00
2019-05-28T20:00:07.498Z,1.00
2019-05-28T20:02:09.169Z,1.00
2019-05-28T20:04:10.833Z,1.00
2019-05-28T20:06:12.513Z,1.00
2019-05-28T20:08:14.194Z,1.00
2019-05-28T20:10:15.952Z,1.00
2019-05-28T20:12:17.958Z,1.00
2019-05-28T20:14:19.622Z,1.00
2019-05-28T20:16:21.594Z,1.00
2019-05-28T20:18:26.641Z,1.00
2019-05-28T20:20:26.858Z,1.00
2019-05-28T20:22:28.533Z,1.00
2019-05-28T20:24:30.202Z,1.00
2019-05-28T20:26:31.882Z,1.00
2019-05-28T20:28:33.578Z,1.00
2019-05-28T20:30:35.333Z,1.00
2019-05-28T20:32:37.009Z,1.00
2019-05-28T20:34:38.678Z,1.00
2019-05-28T20:36:40.352Z,1.00
2019-05-28T20:38:42.029Z,1.00
2019-05-28T20:40:43.706Z,1.00
2019-05-28T20:42:45.482Z,1.00
2019-05-28T20:44:47.162Z,1.10
2019-05-28T20:46:49.233Z,1.40
2019-05-28T20:48:50.901Z,2.60
2019-05-28T20:51:07.047Z,2.80
2019-05-28T20:52:56.442Z,2.90
2019-05-28T20:54:59.140Z,2.20
2019-05-28T20:57:01.091Z,2.30
2019-05-28T20:59:02.754Z,3.80
2019-05-28T21:01:04.439Z,4.10
2019-05-28T21:03:06.141Z,1.90
2019-05-28T21:05:07.909Z,1.20
2019-05-28T21:07:09.593Z,1.80
2019-05-28T21:09:13.010Z,1.00
2019-05-28T21:11:14.821Z,1.00
2019-05-28T21:13:16.933Z,1.60
2019-05-28T21:15:19.221Z,1.80
2019-05-28T21:17:21.153Z,2.20
2019-05-28T21:19:23.107Z,1.50
2019-05-28T21:21:24.870Z,1.70
2019-05-28T21:23:26.549Z,2.40
2019-05-28T21:25:28.221Z,2.90
2019-05-28T21:27:29.992Z,2.90
2019-05-28T21:29:32.040Z,3.40
2019-05-28T21:31:33.794Z,3.40
2019-05-28T21:33:35.481Z,3.70
2019-05-28T21:35:37.149Z,4.40
2019-05-28T21:37:39.145Z,4.70
2019-05-28T21:39:41.085Z,5.10
2019-05-28T21:41:42.764Z,4.60
2019-05-28T21:43:44.445Z,5.90
2019-05-28T21:45:46.117Z,5.30
2019-05-28T21:47:48.106Z,5.60
2019-05-28T21:49:49.774Z,6.10
2019-05-28T21:51:52.662Z,7.60
2019-05-28T21:53:54.792Z,6.80
2019-05-28T21:55:57.222Z,7.90
2019-05-28T21:57:59.880Z,8.50
2019-05-28T22:00:02.346Z,8.10
2019-05-28T22:02:04.794Z,7.60
2019-05-28T22:04:07.696Z,9.40
2019-05-28T22:06:09.765Z,8.80
2019-05-28T22:08:11.445Z,9.10
2019-05-28T22:10:13.113Z,9.50
2019-05-28T22:12:14.785Z,9.90
2019-05-28T22:14:16.457Z,10.10
2019-05-28T22:16:18.120Z,10.20
2019-05-28T22:18:19.809Z,11.20
2019-05-28T22:20:21.472Z,12.10
2019-05-28T22:22:23.147Z,10.80
2019-05-28T22:24:24.822Z,12.20
2019-05-28T22:26:26.489Z,11.90
2019-05-28T22:28:28.264Z,12.20
2019-05-28T22:30:29.942Z,12.50
2019-05-28T22:32:31.621Z,13.60
2019-05-28T22:34:33.293Z,14.30
2019-05-28T22:36:35.228Z,14.00
2019-05-28T22:38:36.910Z,14.40
2019-05-28T22:40:38.565Z,14.20
2019-05-28T22:42:40.554Z,14.20
2019-05-28T22:44:42.234Z,16.10
2019-05-28T22:46:44.394Z,14.90
2019-05-28T22:48:46.369Z,15.90
2019-05-28T22:50:48.041Z,16.70
2019-05-28T22:52:49.825Z,16.30
2019-05-28T22:54:51.833Z,17.60
2019-05-28T22:56:53.501Z,18.30
2019-05-28T22:58:55.550Z,18.10
2019-05-28T23:00:58.351Z,20.10
2019-05-28T23:03:00.889Z,19.80
2019-05-28T23:05:03.205Z,18.30
2019-05-28T23:07:05.443Z,19.40
2019-05-28T23:09:07.762Z,20.20
2019-05-28T23:11:09.909Z,20.10
2019-05-28T23:13:11.712Z,20.90
2019-05-28T23:15:14.968Z,23.10
2019-05-28T23:17:16.643Z,21.90
2019-05-28T23:19:18.317Z,22.20
2019-05-28T23:21:20.481Z,22.60
2019-05-28T23:23:22.437Z,22.20
2019-05-28T23:25:24.100Z,22.10
2019-05-28T23:27:25.775Z,23.20
2019-05-28T23:29:27.696Z,24.10
2019-05-28T23:31:29.365Z,25.50
2019-05-28T23:33:31.034Z,25.40
2019-05-28T23:35:32.700Z,25.60
2019-05-28T23:37:34.395Z,24.70
2019-05-28T23:39:36.072Z,24.50
2019-05-28T23:41:37.742Z,26.00
2019-05-28T23:43:39.418Z,26.70
2019-05-28T23:45:41.277Z,27.40
2019-05-28T23:47:42.954Z,28.90
2019-05-28T23:49:44.634Z,30.00
2019-05-28T23:51:46.297Z,30.00
2019-05-28T23:53:48.245Z,30.00
2019-05-28T23:55:49.896Z,30.70
2019-05-28T23:57:51.569Z,30.00
2019-05-28T23:59:53.305Z,29.90
